Airfield :
LOGIN :

Register | Disclaimer

   EN    FR    IT 

 










Legend :    VFR   Marginal VFR   IFR   Intensive IFR   Very Intensive IFR
Visi :
Ceiling :
>= 8 km
>= 3000ft
5 to 8 km
1000 to 3000 ft
1500m to 5 km
500 to 1000 ft
800 to 1500m
200 to 500 ft
< 800m
< 200 ft
Symbols :   Thunderstorms  Fog  Heavy snow  Heavy precipitations  Wind > 20 kt
SIGMETs :     Misc.  Thunderstorms  Icing  Turbulence  Mountain Waves  Volcanic Ashes







- Airport Elevation : 17 ft
- IATA code : GRQ


EHGG - Groningen Eelde

CURRENT METAR :
  • 152125Z AUTO 13012KT 080V170 9999 NSC M01/M06 Q1016 NOSIG

EXPIRED METARs :
  • 152055Z AUTO 12012KT 080V160 9999 NSC M01/M06 Q1016 NOSIG
  • 152025Z AUTO 13011KT 090V180 9999 NSC M01/M06 Q1017 NOSIG
  • 151955Z AUTO 12010KT 090V160 9999 NSC M01/M05 Q1018 NOSIG
  • 151925Z AUTO 12009KT 080V170 9999 NSC M01/M05 Q1018 NOSIG
  • 151855Z AUTO 13007KT 080V180 9999 NSC M01/M05 Q1019 NOSIG

TAF TAF EHGG
Valid from the 15 at 18:00 until the 17 at 00:00 UTC


151724Z 1518/1624 13014G24KT 9999 BKN030
BECMG 1602/1605 5000 -SN BKN012
PROB30
TEMPO 1604/1608 2000 SN BKN004
BECMG 1609/1612 15008KT 4000 BR -DZ BKN008
BECMG 1614/1617 2500 BR BKN004
PROB30 1618/1624 0800 FG BKN002
No reported NOTAMs for that airfield.
1 SIGMET reported for the Amsterdam FIR (EHAA) :
 
Severe icing with freezing rain
EHAA SIGMET 1 VALID 151920/152330 EHDB
EHAA AMSTERDAM FIR SEV ICE (FZRA) FCST S OF LINE N5157 E00214 - N5109 E00426 SFC/FL050 MOV NE 25KT NC=



MET'MAP, your aeronautical weather chart ! - Copyright ORBIFLY December 2007 - Disclaimer

ORBIFLY MET'MAP TEAM :

Programming & Development : Alexandra Zaïnal
Concept & Development : Baudouin d'Aumeries
Co-Development & Prog : Marc-Olivier Méhu
Technical & hardware support : Manuel Goepfert

Contact : metmap@orbifly.com




SOURCES & CREDITS :

   NOAA